createdAt,value
2019-02-09T00:00:38.610Z,9.90
2019-02-09T00:03:08.168Z,9.90
2019-02-09T00:05:36.834Z,9.80
2019-02-09T00:08:08.033Z,9.70
2019-02-09T00:10:36.497Z,9.70
2019-02-09T00:13:05.152Z,9.70
2019-02-09T00:15:34.134Z,9.70
2019-02-09T00:18:02.727Z,9.70
2019-02-09T00:20:31.223Z,9.60
2019-02-09T00:23:21.943Z,9.60
2019-02-09T00:25:50.395Z,9.60
2019-02-09T00:28:18.817Z,9.70
2019-02-09T00:30:47.275Z,9.60
2019-02-09T00:33:15.783Z,9.60
2019-02-09T00:35:44.235Z,9.60
2019-02-09T00:38:12.755Z,9.60
2019-02-09T00:40:41.178Z,9.60
2019-02-09T00:43:09.643Z,9.70
2019-02-09T00:45:38.058Z,9.70
2019-02-09T00:48:06.523Z,9.80
2019-02-09T00:50:34.942Z,9.80
2019-02-09T00:53:03.452Z,9.80
2019-02-09T00:55:31.873Z,9.70
2019-02-09T00:58:00.325Z,9.60
2019-02-09T01:00:31.556Z,9.40
2019-02-09T01:03:00.727Z,9.40
2019-02-09T01:05:34.987Z,9.30
2019-02-09T01:08:03.807Z,9.30
2019-02-09T01:10:32.474Z,9.30
2019-02-09T01:13:02.364Z,9.30
2019-02-09T01:15:30.957Z,9.50
2019-02-09T01:17:59.542Z,9.60
2019-02-09T01:20:28.515Z,9.70
2019-02-09T01:22:58.082Z,9.60
2019-02-09T01:25:26.678Z,9.70
2019-02-09T01:27:55.445Z,9.60
2019-02-09T01:30:26.480Z,9.70
2019-02-09T01:32:54.994Z,9.80
2019-02-09T01:35:23.557Z,9.90
2019-02-09T01:37:52.646Z,9.80
2019-02-09T01:40:24.137Z,9.80
2019-02-09T01:42:52.917Z,9.90
2019-02-09T01:45:26.607Z,9.90
2019-02-09T01:47:55.132Z,9.80
2019-02-09T01:50:24.792Z,9.80
2019-02-09T01:52:53.571Z,9.80
2019-02-09T01:55:22.144Z,9.90
2019-02-09T01:57:50.637Z,9.90
2019-02-09T02:00:25.062Z,9.80
2019-02-09T02:02:53.711Z,9.80
2019-02-09T02:05:23.480Z,9.80
2019-02-09T02:07:52.250Z,9.70
2019-02-09T02:10:26.334Z,9.70
2019-02-09T02:12:55.099Z,9.60
2019-02-09T02:15:23.980Z,9.50
2019-02-09T02:17:52.399Z,9.30
2019-02-09T02:20:25.664Z,9.10
2019-02-09T02:22:54.174Z,9.00
2019-02-09T02:25:23.739Z,8.90
2019-02-09T02:27:52.248Z,8.80
2019-02-09T02:30:29.049Z,8.80
2019-02-09T02:32:57.717Z,8.90
2019-02-09T02:35:26.315Z,9.00
2019-02-09T02:37:54.811Z,9.00
2019-02-09T02:40:23.803Z,8.90
2019-02-09T02:42:52.292Z,8.70
2019-02-09T02:45:22.573Z,8.70
2019-02-09T02:47:51.236Z,8.70
2019-02-09T02:50:24.273Z,8.60
2019-02-09T02:52:52.879Z,8.60
2019-02-09T02:55:23.878Z,8.50
2019-02-09T02:57:52.667Z,8.60
2019-02-09T03:00:32.065Z,8.60
2019-02-09T03:02:56.656Z,8.60
2019-02-09T03:05:25.646Z,8.70
2019-02-09T03:07:54.653Z,8.80
2019-02-09T03:10:23.191Z,8.80
2019-02-09T03:12:51.759Z,8.80
2019-02-09T03:15:23.283Z,8.90
2019-02-09T03:17:51.721Z,8.90
2019-02-09T03:20:21.303Z,8.90
2019-02-09T03:22:49.810Z,8.90
2019-02-09T03:25:20.807Z,8.80
2019-02-09T03:27:49.230Z,8.70
2019-02-09T03:30:20.748Z,8.80
2019-02-09T03:32:49.194Z,8.70
2019-02-09T03:35:18.548Z,8.90
2019-02-09T03:37:47.060Z,8.90
2019-02-09T03:40:23.885Z,8.90
2019-02-09T03:42:52.465Z,8.90
2019-02-09T03:45:23.320Z,8.90
2019-02-09T03:47:51.806Z,8.90
2019-02-09T03:50:23.946Z,8.80
2019-02-09T03:52:52.387Z,8.80
2019-02-09T03:55:20.816Z,8.90
2019-02-09T03:57:49.371Z,8.80
2019-02-09T04:00:20.574Z,8.80
2019-02-09T04:02:49.778Z,8.80
2019-02-09T04:05:18.555Z,8.90
2019-02-09T04:07:47.226Z,9.00
2019-02-09T04:10:21.155Z,9.00
2019-02-09T04:12:49.681Z,9.00
2019-02-09T04:15:23.193Z,9.00
2019-02-09T04:17:52.202Z,9.10
2019-02-09T04:20:24.698Z,9.10
2019-02-09T04:22:53.315Z,9.20
2019-02-09T04:25:22.604Z,9.20
2019-02-09T04:27:51.191Z,9.10
2019-02-09T04:30:25.074Z,9.10
2019-02-09T04:32:54.003Z,9.20
2019-02-09T04:35:22.570Z,9.20
2019-02-09T04:37:51.100Z,9.20
2019-02-09T04:40:24.852Z,9.20
2019-02-09T04:42:53.309Z,9.20
2019-02-09T04:45:22.058Z,9.30
2019-02-09T04:47:50.581Z,9.30
2019-02-09T04:50:19.437Z,9.40
2019-02-09T04:52:47.914Z,9.50
2019-02-09T04:55:26.881Z,9.50
2019-02-09T04:57:55.748Z,9.60
2019-02-09T05:00:26.834Z,9.60
2019-02-09T05:02:55.354Z,9.70
2019-02-09T05:05:23.865Z,9.70
2019-02-09T05:07:52.439Z,9.60
2019-02-09T05:10:22.531Z,9.50
2019-02-09T05:12:50.989Z,9.50
2019-02-09T05:15:20.853Z,9.60
2019-02-09T05:17:49.537Z,9.60
2019-02-09T05:20:20.475Z,9.60
2019-02-09T05:22:48.994Z,9.40
2019-02-09T05:25:17.807Z,9.30
2019-02-09T05:27:46.254Z,9.20
2019-02-09T05:30:25.409Z,9.20
2019-02-09T05:32:54.453Z,9.20
2019-02-09T05:35:23.110Z,9.40
2019-02-09T05:37:51.628Z,9.40
2019-02-09T05:40:24.463Z,9.40
2019-02-09T05:42:52.886Z,9.40
2019-02-09T05:45:28.955Z,9.50
2019-02-09T05:47:57.400Z,9.50
2019-02-09T05:50:25.823Z,9.50
2019-02-09T05:52:54.528Z,9.60
2019-02-09T05:55:23.142Z,9.60
2019-02-09T05:57:51.805Z,9.60
2019-02-09T06:00:24.684Z,9.50
2019-02-09T06:02:56.128Z,9.50
2019-02-09T06:05:24.589Z,9.50
2019-02-09T06:07:53.091Z,9.60
2019-02-09T06:10:21.551Z,9.70
2019-02-09T06:12:50.042Z,9.80
2019-02-09T06:15:23.696Z,9.80
2019-02-09T06:17:52.127Z,9.70
2019-02-09T06:20:28.403Z,9.70
2019-02-09T06:22:57.146Z,9.70
2019-02-09T06:25:25.693Z,9.70
2019-02-09T06:27:54.264Z,9.70
2019-02-09T06:30:25.321Z,9.80
2019-02-09T06:32:53.759Z,9.80
2019-02-09T06:35:22.547Z,9.80
2019-02-09T06:37:50.980Z,10.00
2019-02-09T06:40:21.079Z,10.00
2019-02-09T06:42:49.592Z,10.10
2019-02-09T06:45:20.189Z,10.10
2019-02-09T06:47:48.684Z,10.10
2019-02-09T06:50:19.786Z,10.10
2019-02-09T06:52:48.231Z,10.00
2019-02-09T06:55:17.027Z,10.10
2019-02-09T06:57:45.752Z,10.10
2019-02-09T07:00:26.938Z,10.20
2019-02-09T07:02:55.542Z,10.30
2019-02-09T07:05:24.022Z,10.30
2019-02-09T07:07:52.458Z,10.30
2019-02-09T07:10:23.050Z,10.30
2019-02-09T07:12:51.592Z,10.30
2019-02-09T07:15:25.549Z,10.30
2019-02-09T07:17:54.057Z,10.30
2019-02-09T07:20:22.759Z,10.30
2019-02-09T07:22:51.207Z,10.40
2019-02-09T07:25:19.895Z,10.40
2019-02-09T07:27:48.399Z,10.50
2019-02-09T07:30:22.126Z,10.50
2019-02-09T07:32:51.202Z,10.60
2019-02-09T07:35:20.015Z,10.70
2019-02-09T07:37:48.435Z,10.60
2019-02-09T07:40:19.664Z,10.60
2019-02-09T07:42:48.242Z,10.60
2019-02-09T07:45:19.392Z,10.70
2019-02-09T07:47:47.892Z,10.70
2019-02-09T07:50:18.384Z,10.70
2019-02-09T07:52:46.827Z,10.80
2019-02-09T07:55:19.565Z,10.80
2019-02-09T07:57:48.282Z,10.80
2019-02-09T08:00:27.459Z,10.80
2019-02-09T08:02:56.225Z,10.80
2019-02-09T08:05:26.946Z,10.70
2019-02-09T08:07:55.451Z,10.60
2019-02-09T08:10:26.323Z,10.60
2019-02-09T08:12:55.043Z,10.60
2019-02-09T08:15:28.605Z,10.60
2019-02-09T08:17:58.253Z,10.60
2019-02-09T08:20:28.506Z,10.60
2019-02-09T08:22:58.611Z,10.60
2019-02-09T08:25:29.323Z,10.60
2019-02-09T08:27:58.395Z,10.50
2019-02-09T08:30:29.838Z,10.40
2019-02-09T08:32:58.541Z,10.40
2019-02-09T08:35:27.099Z,10.40
2019-02-09T08:37:55.990Z,10.40
2019-02-09T08:40:24.490Z,10.60
2019-02-09T08:42:52.975Z,10.70
2019-02-09T08:45:22.685Z,10.60
2019-02-09T08:47:51.428Z,10.60
2019-02-09T08:50:25.692Z,10.50
2019-02-09T08:52:54.156Z,10.60
2019-02-09T08:55:22.718Z,10.60
2019-02-09T08:57:51.408Z,10.70
2019-02-09T09:00:22.759Z,10.80
2019-02-09T09:02:51.218Z,10.80
2019-02-09T09:05:19.647Z,11.00
2019-02-09T09:07:48.311Z,11.00
2019-02-09T09:10:22.262Z,11.20
2019-02-09T09:12:50.773Z,11.30
2019-02-09T09:15:28.884Z,11.40
2019-02-09T09:17:57.371Z,11.40
2019-02-09T09:20:31.306Z,11.50
2019-02-09T09:22:59.771Z,11.60
2019-02-09T09:25:28.278Z,11.50
2019-02-09T09:27:57.010Z,11.40
2019-02-09T09:30:28.287Z,11.30
2019-02-09T09:32:56.810Z,11.10
2019-02-09T09:35:25.333Z,11.00
2019-02-09T09:37:54.804Z,10.80
2019-02-09T09:40:31.818Z,10.70
2019-02-09T09:43:00.259Z,10.50
2019-02-09T09:45:31.532Z,10.40
2019-02-09T09:48:00.051Z,10.40
2019-02-09T09:50:29.436Z,10.50
2019-02-09T09:52:58.228Z,10.60
2019-02-09T09:55:28.060Z,10.60
2019-02-09T09:57:56.840Z,10.60
2019-02-09T10:00:30.631Z,10.60
2019-02-09T10:02:58.939Z,10.70
2019-02-09T10:05:27.478Z,10.80
2019-02-09T10:07:56.855Z,10.90
2019-02-09T10:10:25.446Z,10.90
2019-02-09T10:12:53.875Z,10.90
2019-02-09T10:15:26.942Z,10.80
2019-02-09T10:17:55.532Z,10.80
2019-02-09T10:20:28.762Z,10.80
2019-02-09T10:22:57.687Z,10.80
2019-02-09T10:25:26.218Z,10.80
2019-02-09T10:27:56.356Z,10.70
2019-02-09T10:30:26.949Z,10.60
2019-02-09T10:32:55.384Z,10.70
2019-02-09T10:35:24.074Z,10.80
2019-02-09T10:37:52.498Z,10.90
2019-02-09T10:40:34.699Z,11.00
2019-02-09T10:43:04.068Z,11.10
2019-02-09T10:45:32.666Z,11.10
2019-02-09T10:48:02.161Z,11.20
2019-02-09T10:50:36.471Z,11.40
2019-02-09T10:53:05.337Z,11.50
2019-02-09T10:55:33.884Z,11.40
2019-02-09T10:58:02.390Z,11.40
2019-02-09T11:00:33.981Z,11.40
2019-02-09T11:03:02.494Z,11.40
2019-02-09T11:05:31.208Z,11.50
2019-02-09T11:07:59.653Z,11.70
2019-02-09T11:10:28.256Z,11.70
2019-02-09T11:12:56.820Z,11.80
2019-02-09T11:15:25.438Z,11.90
2019-02-09T11:17:53.896Z,11.90
2019-02-09T11:20:23.811Z,12.00
2019-02-09T11:22:52.381Z,12.10
2019-02-09T11:25:25.531Z,12.30
2019-02-09T11:27:54.481Z,12.30
2019-02-09T11:30:29.458Z,12.30
2019-02-09T11:33:01.993Z,12.20
2019-02-09T11:35:28.513Z,12.00
2019-02-09T11:37:57.095Z,11.90
2019-02-09T11:40:32.720Z,11.80
2019-02-09T11:43:02.490Z,11.60
2019-02-09T11:45:35.350Z,11.50
2019-02-09T11:48:04.835Z,11.40
2019-02-09T11:50:33.326Z,11.40
2019-02-09T11:53:02.195Z,11.30
2019-02-09T11:55:30.722Z,11.20
2019-02-09T11:57:59.242Z,11.20
2019-02-09T12:00:30.442Z,11.20
2019-02-09T12:03:03.140Z,11.30
2019-02-09T12:05:29.262Z,11.30
2019-02-09T12:07:57.713Z,11.50
2019-02-09T12:10:28.190Z,11.60
2019-02-09T12:12:56.650Z,11.40
2019-02-09T12:15:35.883Z,11.40
2019-02-09T12:18:07.843Z,11.30
2019-02-09T12:20:36.423Z,11.20
2019-02-09T12:23:05.380Z,11.10
2019-02-09T12:25:38.546Z,11.00
2019-02-09T12:28:09.700Z,11.00
2019-02-09T12:30:39.383Z,11.00
2019-02-09T12:33:09.825Z,11.00
2019-02-09T12:35:38.761Z,11.00
2019-02-09T12:38:08.598Z,10.90
2019-02-09T12:40:37.477Z,10.90
2019-02-09T12:43:06.228Z,10.90
2019-02-09T12:45:39.607Z,10.90
2019-02-09T12:48:09.244Z,10.90
2019-02-09T12:50:39.027Z,10.90
2019-02-09T12:53:08.220Z,10.90
2019-02-09T12:55:36.750Z,10.90
2019-02-09T12:58:06.091Z,10.90
2019-02-09T13:00:37.023Z,10.90
2019-02-09T13:03:11.740Z,10.90
2019-02-09T13:05:40.194Z,11.00
2019-02-09T13:08:08.753Z,10.90
2019-02-09T13:10:37.240Z,10.90
2019-02-09T13:13:05.731Z,10.80
2019-02-09T13:15:34.860Z,10.80
2019-02-09T13:18:03.473Z,10.80
2019-02-09T13:20:32.938Z,10.80
2019-02-09T13:23:01.544Z,10.90
2019-02-09T13:25:30.049Z,11.10
2019-02-09T13:27:58.507Z,11.30
2019-02-09T13:30:32.892Z,11.60
2019-02-09T13:33:01.514Z,11.80
2019-02-09T13:35:30.005Z,12.00
2019-02-09T13:37:58.577Z,12.10
2019-02-09T13:40:28.168Z,12.30
2019-02-09T13:42:57.740Z,12.40
2019-02-09T13:45:37.743Z,12.50
2019-02-09T13:48:06.722Z,12.70
2019-02-09T13:50:35.778Z,12.70
2019-02-09T13:53:05.055Z,12.70
2019-02-09T13:55:33.575Z,12.70
2019-02-09T13:58:02.213Z,12.70
2019-02-09T14:00:32.261Z,12.70
2019-02-09T14:03:01.034Z,12.70
2019-02-09T14:05:29.651Z,12.60
2019-02-09T14:07:58.771Z,12.40
2019-02-09T14:10:29.131Z,12.40
2019-02-09T14:12:57.714Z,12.30
2019-02-09T14:15:28.877Z,12.30
2019-02-09T14:17:59.060Z,12.30
2019-02-09T14:20:27.581Z,12.40
2019-02-09T14:22:56.504Z,12.30
2019-02-09T14:25:25.108Z,12.30
2019-02-09T14:27:55.327Z,12.30
2019-02-09T14:30:26.918Z,12.30
2019-02-09T14:32:55.807Z,12.20
2019-02-09T14:35:24.540Z,12.20
2019-02-09T14:37:53.350Z,12.40
2019-02-09T14:40:27.073Z,12.10
2019-02-09T14:42:55.617Z,12.10
2019-02-09T14:45:27.187Z,12.20
2019-02-09T14:47:55.872Z,12.10
2019-02-09T14:50:24.470Z,12.00
2019-02-09T14:52:52.972Z,12.00
2019-02-09T14:55:24.201Z,11.90
2019-02-09T14:57:52.756Z,11.90
2019-02-09T15:00:26.415Z,11.90
2019-02-09T15:02:54.906Z,11.80
2019-02-09T15:05:23.435Z,11.80
2019-02-09T15:07:51.882Z,11.90
2019-02-09T15:10:21.236Z,11.80
2019-02-09T15:12:49.851Z,11.80
2019-02-09T15:15:27.234Z,11.80
2019-02-09T15:17:55.768Z,11.90
2019-02-09T15:20:41.874Z,11.90
2019-02-09T15:23:10.394Z,12.00
2019-02-09T15:25:38.855Z,12.00
2019-02-09T15:28:07.416Z,12.00
2019-02-09T15:30:36.038Z,12.00
2019-02-09T15:33:04.608Z,12.00
2019-02-09T15:35:33.132Z,11.90
2019-02-09T15:38:01.559Z,11.90
2019-02-09T15:40:30.025Z,12.00
2019-02-09T15:42:58.455Z,11.90
2019-02-09T15:45:26.971Z,11.90
2019-02-09T15:47:55.400Z,11.90
2019-02-09T15:50:23.929Z,11.90
2019-02-09T15:52:52.488Z,11.80
2019-02-09T15:55:25.367Z,11.80
2019-02-09T15:57:53.903Z,11.80
2019-02-09T16:00:27.472Z,11.70
2019-02-09T16:02:58.217Z,11.60
2019-02-09T16:05:26.902Z,11.60
2019-02-09T16:07:55.863Z,11.40
2019-02-09T16:10:25.331Z,11.50
2019-02-09T16:12:53.862Z,11.50
2019-02-09T16:15:27.798Z,11.40
2019-02-09T16:17:56.335Z,11.40
2019-02-09T16:20:26.313Z,11.30
2019-02-09T16:22:54.894Z,11.20
2019-02-09T16:25:23.555Z,11.10
2019-02-09T16:27:52.099Z,10.90
2019-02-09T16:30:23.134Z,10.90
2019-02-09T16:32:51.798Z,10.90
2019-02-09T16:35:22.087Z,10.90
2019-02-09T16:37:50.706Z,10.90
2019-02-09T16:40:21.082Z,10.80
2019-02-09T16:42:49.670Z,10.70
2019-02-09T16:45:23.735Z,10.70
2019-02-09T16:47:52.179Z,10.80
2019-02-09T16:50:21.710Z,10.80
2019-02-09T16:52:50.796Z,10.90
2019-02-09T16:55:22.414Z,10.90
2019-02-09T16:57:51.946Z,11.00
2019-02-09T17:00:32.744Z,10.90
2019-02-09T17:03:01.458Z,10.90
2019-02-09T17:05:29.965Z,10.90
2019-02-09T17:07:58.656Z,10.80
2019-02-09T17:10:27.119Z,10.80
2019-02-09T17:12:55.643Z,10.80
2019-02-09T17:15:25.710Z,10.80
2019-02-09T17:17:54.158Z,10.70
2019-02-09T17:20:22.662Z,10.70
2019-02-09T17:22:51.805Z,10.80
2019-02-09T17:25:22.134Z,10.80
2019-02-09T17:27:50.930Z,10.70
2019-02-09T17:30:26.780Z,10.70
2019-02-09T17:32:55.719Z,10.60
2019-02-09T17:35:24.281Z,10.60
2019-02-09T17:37:52.870Z,10.60
2019-02-09T17:40:32.295Z,10.60
2019-02-09T17:42:58.799Z,10.60
2019-02-09T17:45:30.239Z,10.60
2019-02-09T17:47:58.690Z,10.50
2019-02-09T17:50:27.191Z,10.60
2019-02-09T17:52:55.638Z,10.60
2019-02-09T17:55:24.078Z,10.60
2019-02-09T17:57:52.501Z,10.70
2019-02-09T18:00:38.481Z,10.70
2019-02-09T18:03:07.017Z,10.70
2019-02-09T18:05:35.524Z,10.60
2019-02-09T18:08:04.846Z,10.50
2019-02-09T18:10:33.301Z,10.40
2019-02-09T18:13:01.730Z,10.30
2019-02-09T18:15:30.207Z,10.20
2019-02-09T18:17:58.717Z,10.30
2019-02-09T18:20:28.008Z,10.10
2019-02-09T18:22:56.573Z,10.10
2019-02-09T18:25:25.165Z,10.00
2019-02-09T18:27:53.693Z,10.00
2019-02-09T18:30:29.586Z,10.00
2019-02-09T18:32:58.111Z,10.10
2019-02-09T18:35:26.695Z,10.10
2019-02-09T18:37:55.130Z,10.30
2019-02-09T18:40:27.555Z,10.30
2019-02-09T18:42:56.150Z,10.30
2019-02-09T18:45:30.110Z,10.30
2019-02-09T18:47:58.684Z,10.20
2019-02-09T18:50:31.958Z,10.30
2019-02-09T18:53:01.622Z,10.30
2019-02-09T18:55:30.822Z,10.10
2019-02-09T18:57:59.454Z,10.00
2019-02-09T19:00:33.289Z,10.00
2019-02-09T19:03:01.899Z,10.10
2019-02-09T19:05:30.416Z,10.10
2019-02-09T19:07:58.837Z,10.10
2019-02-09T19:10:28.489Z,10.20
2019-02-09T19:12:57.255Z,10.20
2019-02-09T19:15:27.526Z,10.10
2019-02-09T19:17:57.313Z,10.10
2019-02-09T19:20:28.838Z,10.10
2019-02-09T19:22:57.335Z,10.10
2019-02-09T19:25:25.964Z,10.10
2019-02-09T19:27:54.398Z,10.00
2019-02-09T19:30:24.390Z,9.90
2019-02-09T19:32:53.067Z,9.90
2019-02-09T19:35:21.654Z,10.00
2019-02-09T19:37:50.332Z,10.10
2019-02-09T19:40:24.066Z,10.10
2019-02-09T19:42:52.498Z,10.20
2019-02-09T19:45:26.106Z,10.30
2019-02-09T19:47:54.787Z,10.30
2019-02-09T19:50:23.294Z,10.40
2019-02-09T19:52:51.739Z,10.40
2019-02-09T19:55:25.267Z,10.40
2019-02-09T19:57:53.940Z,10.30
2019-02-09T20:00:28.567Z,10.30
2019-02-09T20:02:57.141Z,10.30
2019-02-09T20:05:26.443Z,10.30
2019-02-09T20:07:57.108Z,10.30
2019-02-09T20:10:31.819Z,10.30
2019-02-09T20:13:07.224Z,10.30
2019-02-09T20:15:36.863Z,10.30
2019-02-09T20:18:06.511Z,10.30
2019-02-09T20:20:35.251Z,10.30
2019-02-09T20:23:03.854Z,10.40
2019-02-09T20:25:32.317Z,10.30
2019-02-09T20:28:01.160Z,10.30
2019-02-09T20:30:40.564Z,10.30
2019-02-09T20:33:09.255Z,10.30
2019-02-09T20:35:37.963Z,10.30
2019-02-09T20:38:08.474Z,10.30
2019-02-09T20:40:43.345Z,10.30
2019-02-09T20:43:15.214Z,10.30
2019-02-09T20:45:43.837Z,10.40
2019-02-09T20:48:12.339Z,10.40
2019-02-09T20:50:40.975Z,10.40
2019-02-09T20:53:09.571Z,10.40
2019-02-09T20:55:38.094Z,10.40
2019-02-09T20:58:08.412Z,10.30
2019-02-09T21:00:36.893Z,10.30
2019-02-09T21:03:06.176Z,10.30
2019-02-09T21:05:36.553Z,10.40
2019-02-09T21:08:05.479Z,10.30
2019-02-09T21:10:41.676Z,10.40
2019-02-09T21:13:10.230Z,10.40
2019-02-09T21:15:38.675Z,10.40
2019-02-09T21:18:08.237Z,10.40
2019-02-09T21:20:37.177Z,10.40
2019-02-09T21:23:06.283Z,10.40
2019-02-09T21:25:37.168Z,10.50
2019-02-09T21:28:05.971Z,10.50
2019-02-09T21:30:34.420Z,10.50
2019-02-09T21:33:03.034Z,10.50
2019-02-09T21:35:34.997Z,10.50
2019-02-09T21:38:03.534Z,10.60
2019-02-09T21:40:33.012Z,10.60
2019-02-09T21:43:01.806Z,10.50
2019-02-09T21:45:30.303Z,10.50
2019-02-09T21:47:58.783Z,10.50
2019-02-09T21:50:34.970Z,10.60
2019-02-09T21:53:03.556Z,10.50
2019-02-09T21:55:31.992Z,10.60
2019-02-09T21:58:00.998Z,10.60
2019-02-09T22:00:31.815Z,10.60
2019-02-09T22:03:00.347Z,10.60
2019-02-09T22:05:28.973Z,10.60
2019-02-09T22:07:57.846Z,10.40
2019-02-09T22:10:33.994Z,10.40
2019-02-09T22:13:01.853Z,10.20
2019-02-09T22:15:38.296Z,10.20
2019-02-09T22:18:02.211Z,10.20
2019-02-09T22:20:30.739Z,10.20
2019-02-09T22:22:59.467Z,10.20
2019-02-09T22:25:29.346Z,10.20
2019-02-09T22:27:58.037Z,10.10
2019-02-09T22:30:32.913Z,10.20
2019-02-09T22:33:01.745Z,10.20
2019-02-09T22:35:30.590Z,10.20
2019-02-09T22:37:59.698Z,10.20
2019-02-09T22:40:36.295Z,10.20
2019-02-09T22:43:06.016Z,10.20
2019-02-09T22:45:34.528Z,10.10
2019-02-09T22:48:03.036Z,10.00
2019-02-09T22:50:34.291Z,10.00
2019-02-09T22:53:02.728Z,10.00
2019-02-09T22:55:31.323Z,10.00
2019-02-09T22:57:59.762Z,10.10
2019-02-09T23:00:53.683Z,10.00
2019-02-09T23:03:25.026Z,10.10
2019-02-09T23:05:59.183Z,10.20
2019-02-09T23:08:27.655Z,10.20
2019-02-09T23:10:56.123Z,10.20
2019-02-09T23:13:24.566Z,10.10
2019-02-09T23:15:54.339Z,10.10
2019-02-09T23:18:23.628Z,10.10
2019-02-09T23:20:52.234Z,10.10
2019-02-09T23:23:21.060Z,10.10
2019-02-09T23:25:49.561Z,10.10
2019-02-09T23:28:18.262Z,10.20
2019-02-09T23:30:46.830Z,10.20
2019-02-09T23:33:15.371Z,10.20
2019-02-09T23:35:44.194Z,10.20
2019-02-09T23:38:12.829Z,10.20
2019-02-09T23:40:41.460Z,10.30
2019-02-09T23:43:10.187Z,10.30
2019-02-09T23:45:38.647Z,10.40
2019-02-09T23:48:07.275Z,10.50
2019-02-09T23:50:35.798Z,10.50
2019-02-09T23:53:04.398Z,10.50
2019-02-09T23:55:33.093Z,10.50
2019-02-09T23:58:01.688Z,10.50
